sensor_id;sensor_type;location;lat;lon;timestamp;P1;durP1;ratioP1;P2;durP2;ratioP2
31378;SDS011;61664;48.112;11.662;2022-07-21T00:00:21;2.42;;;1.67;;
31378;SDS011;61664;48.112;11.662;2022-07-21T00:02:51;1.73;;;1.63;;
31378;SDS011;61664;48.112;11.662;2022-07-21T00:05:18;1.60;;;1.50;;
31378;SDS011;61664;48.112;11.662;2022-07-21T00:07:46;2.42;;;1.92;;
31378;SDS011;61664;48.112;11.662;2022-07-21T00:10:13;1.75;;;1.65;;
31378;SDS011;61664;48.112;11.662;2022-07-21T00:12:41;2.72;;;1.80;;
31378;SDS011;61664;48.112;11.662;2022-07-21T00:15:09;2.03;;;1.92;;
31378;SDS011;61664;48.112;11.662;2022-07-21T00:17:38;1.92;;;1.73;;
31378;SDS011;61664;48.112;11.662;2022-07-21T00:20:06;1.63;;;1.52;;
31378;SDS011;61664;48.112;11.662;2022-07-21T00:22:35;1.88;;;1.77;;
31378;SDS011;61664;48.112;11.662;2022-07-21T00:25:04;1.60;;;1.50;;
31378;SDS011;61664;48.112;11.662;2022-07-21T00:27:32;1.90;;;1.60;;
31378;SDS011;61664;48.112;11.662;2022-07-21T00:30:00;2.13;;;1.98;;
31378;SDS011;61664;48.112;11.662;2022-07-21T00:32:29;2.28;;;2.17;;
31378;SDS011;61664;48.112;11.662;2022-07-21T00:35:02;2.33;;;1.95;;
31378;SDS011;61664;48.112;11.662;2022-07-21T00:37:31;1.80;;;1.70;;
31378;SDS011;61664;48.112;11.662;2022-07-21T00:39:58;1.73;;;1.63;;
31378;SDS011;61664;48.112;11.662;2022-07-21T00:42:26;1.92;;;1.83;;
31378;SDS011;61664;48.112;11.662;2022-07-21T00:44:55;1.87;;;1.77;;
31378;SDS011;61664;48.112;11.662;2022-07-21T00:47:23;1.95;;;1.85;;
31378;SDS011;61664;48.112;11.662;2022-07-21T00:49:57;2.25;;;2.05;;
31378;SDS011;61664;48.112;11.662;2022-07-21T00:52:25;2.28;;;1.77;;
31378;SDS011;61664;48.112;11.662;2022-07-21T00:54:52;2.22;;;2.03;;
31378;SDS011;61664;48.112;11.662;2022-07-21T00:57:19;3.25;;;2.47;;
31378;SDS011;61664;48.112;11.662;2022-07-21T00:59:46;2.30;;;2.08;;
31378;SDS011;61664;48.112;11.662;2022-07-21T01:02:14;2.40;;;2.30;;
31378;SDS011;61664;48.112;11.662;2022-07-21T01:04:41;2.38;;;2.28;;
31378;SDS011;61664;48.112;11.662;2022-07-21T01:07:08;2.40;;;2.30;;
31378;SDS011;61664;48.112;11.662;2022-07-21T01:09:35;2.15;;;2.05;;
31378;SDS011;61664;48.112;11.662;2022-07-21T01:12:03;2.28;;;2.13;;
31378;SDS011;61664;48.112;11.662;2022-07-21T01:14:30;2.50;;;2.13;;
31378;SDS011;61664;48.112;11.662;2022-07-21T01:16:58;1.98;;;1.83;;
31378;SDS011;61664;48.112;11.662;2022-07-21T01:19:29;2.33;;;2.13;;
31378;SDS011;61664;48.112;11.662;2022-07-21T01:21:56;4.55;;;2.35;;
31378;SDS011;61664;48.112;11.662;2022-07-21T01:24:23;2.28;;;2.08;;
31378;SDS011;61664;48.112;11.662;2022-07-21T01:26:51;2.20;;;2.00;;
31378;SDS011;61664;48.112;11.662;2022-07-21T01:29:19;3.45;;;2.17;;
31378;SDS011;61664;48.112;11.662;2022-07-21T01:31:48;2.17;;;2.00;;
31378;SDS011;61664;48.112;11.662;2022-07-21T01:34:16;2.00;;;1.90;;
31378;SDS011;61664;48.112;11.662;2022-07-21T01:36:46;2.53;;;2.17;;
31378;SDS011;61664;48.112;11.662;2022-07-21T01:39:13;2.53;;;2.13;;
31378;SDS011;61664;48.112;11.662;2022-07-21T01:41:59;2.17;;;2.08;;
31378;SDS011;61664;48.112;11.662;2022-07-21T01:44:26;2.10;;;2.00;;
31378;SDS011;61664;48.112;11.662;2022-07-21T01:46:53;2.92;;;2.72;;
31378;SDS011;61664;48.112;11.662;2022-07-21T01:49:20;2.50;;;2.30;;
31378;SDS011;61664;48.112;11.662;2022-07-21T01:51:48;2.22;;;2.13;;
31378;SDS011;61664;48.112;11.662;2022-07-21T01:54:16;2.88;;;2.67;;
31378;SDS011;61664;48.112;11.662;2022-07-21T01:56:49;2.30;;;2.20;;
31378;SDS011;61664;48.112;11.662;2022-07-21T01:59:16;2.50;;;2.25;;
31378;SDS011;61664;48.112;11.662;2022-07-21T02:01:44;2.97;;;2.80;;
31378;SDS011;61664;48.112;11.662;2022-07-21T02:04:11;2.53;;;2.33;;
31378;SDS011;61664;48.112;11.662;2022-07-21T02:06:38;2.30;;;2.20;;
31378;SDS011;61664;48.112;11.662;2022-07-21T02:09:05;2.45;;;2.35;;
31378;SDS011;61664;48.112;11.662;2022-07-21T02:11:33;2.47;;;2.38;;
31378;SDS011;61664;48.112;11.662;2022-07-21T02:14:00;3.25;;;2.90;;
31378;SDS011;61664;48.112;11.662;2022-07-21T02:16:27;2.47;;;2.28;;
31378;SDS011;61664;48.112;11.662;2022-07-21T02:18:55;2.65;;;2.45;;
31378;SDS011;61664;48.112;11.662;2022-07-21T02:21:23;2.58;;;2.47;;
31378;SDS011;61664;48.112;11.662;2022-07-21T02:23:50;2.58;;;2.38;;
31378;SDS011;61664;48.112;11.662;2022-07-21T02:26:17;2.38;;;2.25;;
31378;SDS011;61664;48.112;11.662;2022-07-21T02:28:44;3.30;;;2.88;;
31378;SDS011;61664;48.112;11.662;2022-07-21T02:31:11;2.58;;;2.38;;
31378;SDS011;61664;48.112;11.662;2022-07-21T02:33:38;3.20;;;3.00;;
31378;SDS011;61664;48.112;11.662;2022-07-21T02:36:05;2.50;;;2.30;;
31378;SDS011;61664;48.112;11.662;2022-07-21T02:38:33;6.78;;;2.70;;
31378;SDS011;61664;48.112;11.662;2022-07-21T02:41:00;2.53;;;2.38;;
31378;SDS011;61664;48.112;11.662;2022-07-21T02:43:28;2.50;;;2.30;;
31378;SDS011;61664;48.112;11.662;2022-07-21T02:45:56;2.85;;;2.65;;
31378;SDS011;61664;48.112;11.662;2022-07-21T02:48:37;2.88;;;2.33;;
31378;SDS011;61664;48.112;11.662;2022-07-21T02:51:04;2.70;;;2.60;;
31378;SDS011;61664;48.112;11.662;2022-07-21T02:53:33;3.10;;;2.72;;
31378;SDS011;61664;48.112;11.662;2022-07-21T02:56:01;2.75;;;2.55;;
31378;SDS011;61664;48.112;11.662;2022-07-21T02:58:29;3.00;;;2.90;;
31378;SDS011;61664;48.112;11.662;2022-07-21T03:00:58;2.78;;;2.63;;
31378;SDS011;61664;48.112;11.662;2022-07-21T03:03:32;2.80;;;2.60;;
31378;SDS011;61664;48.112;11.662;2022-07-21T03:06:03;2.58;;;2.47;;
31378;SDS011;61664;48.112;11.662;2022-07-21T03:08:31;3.00;;;2.80;;
31378;SDS011;61664;48.112;11.662;2022-07-21T03:10:58;3.53;;;3.33;;
31378;SDS011;61664;48.112;11.662;2022-07-21T03:13:25;3.05;;;2.85;;
31378;SDS011;61664;48.112;11.662;2022-07-21T03:15:52;3.70;;;3.47;;
31378;SDS011;61664;48.112;11.662;2022-07-21T03:18:20;3.72;;;3.42;;
31378;SDS011;61664;48.112;11.662;2022-07-21T03:20:47;3.53;;;3.28;;
31378;SDS011;61664;48.112;11.662;2022-07-21T03:23:14;3.40;;;3.20;;
31378;SDS011;61664;48.112;11.662;2022-07-21T03:25:41;3.80;;;3.47;;
31378;SDS011;61664;48.112;11.662;2022-07-21T03:28:08;4.38;;;3.67;;
31378;SDS011;61664;48.112;11.662;2022-07-21T03:30:35;4.30;;;4.00;;
31378;SDS011;61664;48.112;11.662;2022-07-21T03:33:03;4.90;;;4.50;;
31378;SDS011;61664;48.112;11.662;2022-07-21T03:35:30;4.35;;;4.05;;
31378;SDS011;61664;48.112;11.662;2022-07-21T03:37:59;4.38;;;4.07;;
31378;SDS011;61664;48.112;11.662;2022-07-21T03:40:28;4.80;;;4.43;;
31378;SDS011;61664;48.112;11.662;2022-07-21T03:42:58;4.93;;;4.55;;
31378;SDS011;61664;48.112;11.662;2022-07-21T03:45:28;6.65;;;5.25;;
31378;SDS011;61664;48.112;11.662;2022-07-21T03:47:58;4.68;;;4.38;;
31378;SDS011;61664;48.112;11.662;2022-07-21T03:50:27;4.65;;;4.35;;
31378;SDS011;61664;48.112;11.662;2022-07-21T03:52:56;4.32;;;4.03;;
31378;SDS011;61664;48.112;11.662;2022-07-21T03:55:23;4.95;;;4.65;;
31378;SDS011;61664;48.112;11.662;2022-07-21T03:57:52;5.32;;;4.82;;
31378;SDS011;61664;48.112;11.662;2022-07-21T04:00:38;5.43;;;4.93;;
31378;SDS011;61664;48.112;11.662;2022-07-21T04:03:08;5.40;;;5.10;;
31378;SDS011;61664;48.112;11.662;2022-07-21T04:05:37;5.60;;;5.30;;
31378;SDS011;61664;48.112;11.662;2022-07-21T04:08:08;6.05;;;5.55;;
31378;SDS011;61664;48.112;11.662;2022-07-21T04:10:38;5.93;;;5.53;;
31378;SDS011;61664;48.112;11.662;2022-07-21T04:13:08;5.90;;;5.50;;
31378;SDS011;61664;48.112;11.662;2022-07-21T04:15:40;6.82;;;6.32;;
31378;SDS011;61664;48.112;11.662;2022-07-21T04:18:08;5.93;;;5.50;;
31378;SDS011;61664;48.112;11.662;2022-07-21T04:20:35;6.13;;;5.53;;
31378;SDS011;61664;48.112;11.662;2022-07-21T04:23:03;7.10;;;6.60;;
31378;SDS011;61664;48.112;11.662;2022-07-21T04:25:31;5.78;;;5.28;;
31378;SDS011;61664;48.112;11.662;2022-07-21T04:27:57;6.75;;;6.25;;
31378;SDS011;61664;48.112;11.662;2022-07-21T04:30:25;6.50;;;5.90;;
31378;SDS011;61664;48.112;11.662;2022-07-21T04:32:52;5.18;;;4.88;;
31378;SDS011;61664;48.112;11.662;2022-07-21T04:35:19;6.20;;;5.85;;
31378;SDS011;61664;48.112;11.662;2022-07-21T04:37:46;6.82;;;6.28;;
31378;SDS011;61664;48.112;11.662;2022-07-21T04:40:14;7.38;;;6.88;;
31378;SDS011;61664;48.112;11.662;2022-07-21T04:42:42;7.15;;;6.57;;
31378;SDS011;61664;48.112;11.662;2022-07-21T04:45:10;6.45;;;6.05;;
31378;SDS011;61664;48.112;11.662;2022-07-21T04:50:16;6.20;;;5.70;;
31378;SDS011;61664;48.112;11.662;2022-07-21T04:52:45;6.72;;;6.28;;
31378;SDS011;61664;48.112;11.662;2022-07-21T04:55:13;7.63;;;7.00;;
31378;SDS011;61664;48.112;11.662;2022-07-21T04:57:44;6.78;;;6.35;;
31378;SDS011;61664;48.112;11.662;2022-07-21T05:00:15;6.72;;;6.22;;
31378;SDS011;61664;48.112;11.662;2022-07-21T05:02:48;6.13;;;5.55;;
31378;SDS011;61664;48.112;11.662;2022-07-21T05:05:17;6.40;;;6.00;;
31378;SDS011;61664;48.112;11.662;2022-07-21T05:07:45;6.85;;;6.20;;
31378;SDS011;61664;48.112;11.662;2022-07-21T05:10:13;7.25;;;6.75;;
31378;SDS011;61664;48.112;11.662;2022-07-21T05:12:42;6.57;;;6.17;;
31378;SDS011;61664;48.112;11.662;2022-07-21T05:15:09;6.25;;;5.75;;
31378;SDS011;61664;48.112;11.662;2022-07-21T05:17:37;6.60;;;6.00;;
31378;SDS011;61664;48.112;11.662;2022-07-21T05:20:06;7.22;;;6.63;;
31378;SDS011;61664;48.112;11.662;2022-07-21T05:22:35;6.32;;;5.75;;
31378;SDS011;61664;48.112;11.662;2022-07-21T05:25:03;9.43;;;7.22;;
31378;SDS011;61664;48.112;11.662;2022-07-21T05:27:31;6.50;;;6.10;;
31378;SDS011;61664;48.112;11.662;2022-07-21T05:29:59;8.88;;;8.05;;
31378;SDS011;61664;48.112;11.662;2022-07-21T05:32:26;7.45;;;6.85;;
31378;SDS011;61664;48.112;11.662;2022-07-21T05:34:53;8.27;;;7.68;;
31378;SDS011;61664;48.112;11.662;2022-07-21T05:37:20;7.97;;;7.20;;
31378;SDS011;61664;48.112;11.662;2022-07-21T05:39:47;8.63;;;7.93;;
31378;SDS011;61664;48.112;11.662;2022-07-21T05:42:14;7.38;;;6.70;;
31378;SDS011;61664;48.112;11.662;2022-07-21T05:44:41;7.82;;;7.13;;
31378;SDS011;61664;48.112;11.662;2022-07-21T05:47:08;8.05;;;7.43;;
31378;SDS011;61664;48.112;11.662;2022-07-21T05:49:35;8.27;;;7.57;;
31378;SDS011;61664;48.112;11.662;2022-07-21T05:52:02;7.07;;;6.57;;
31378;SDS011;61664;48.112;11.662;2022-07-21T05:54:29;7.32;;;6.72;;
31378;SDS011;61664;48.112;11.662;2022-07-21T05:56:56;10.75;;;7.13;;
31378;SDS011;61664;48.112;11.662;2022-07-21T05:59:24;7.68;;;7.18;;
31378;SDS011;61664;48.112;11.662;2022-07-21T06:01:51;8.40;;;7.65;;
31378;SDS011;61664;48.112;11.662;2022-07-21T06:04:18;8.70;;;7.95;;
31378;SDS011;61664;48.112;11.662;2022-07-21T06:06:45;7.53;;;6.93;;
31378;SDS011;61664;48.112;11.662;2022-07-21T06:09:12;8.55;;;7.72;;
31378;SDS011;61664;48.112;11.662;2022-07-21T06:11:40;7.68;;;7.00;;
31378;SDS011;61664;48.112;11.662;2022-07-21T06:14:07;7.72;;;7.05;;
31378;SDS011;61664;48.112;11.662;2022-07-21T06:16:34;7.50;;;6.90;;
31378;SDS011;61664;48.112;11.662;2022-07-21T06:19:01;7.10;;;6.57;;
31378;SDS011;61664;48.112;11.662;2022-07-21T06:21:29;8.05;;;7.32;;
31378;SDS011;61664;48.112;11.662;2022-07-21T06:23:56;8.07;;;7.38;;
31378;SDS011;61664;48.112;11.662;2022-07-21T06:26:24;8.25;;;7.65;;
31378;SDS011;61664;48.112;11.662;2022-07-21T06:28:52;7.90;;;7.30;;
31378;SDS011;61664;48.112;11.662;2022-07-21T06:31:20;7.88;;;7.18;;
31378;SDS011;61664;48.112;11.662;2022-07-21T06:33:47;8.48;;;7.68;;
31378;SDS011;61664;48.112;11.662;2022-07-21T06:36:14;9.60;;;8.23;;
31378;SDS011;61664;48.112;11.662;2022-07-21T06:38:41;7.55;;;6.82;;
31378;SDS011;61664;48.112;11.662;2022-07-21T06:41:08;8.38;;;7.70;;
31378;SDS011;61664;48.112;11.662;2022-07-21T06:43:35;8.27;;;7.68;;
31378;SDS011;61664;48.112;11.662;2022-07-21T06:46:02;8.00;;;7.30;;
31378;SDS011;61664;48.112;11.662;2022-07-21T06:48:29;8.73;;;8.00;;
31378;SDS011;61664;48.112;11.662;2022-07-21T06:50:56;7.85;;;7.25;;
31378;SDS011;61664;48.112;11.662;2022-07-21T06:53:27;8.23;;;7.43;;
31378;SDS011;61664;48.112;11.662;2022-07-21T06:55:54;8.68;;;7.97;;
31378;SDS011;61664;48.112;11.662;2022-07-21T06:58:29;9.02;;;8.20;;
31378;SDS011;61664;48.112;11.662;2022-07-21T07:01:04;9.30;;;8.40;;
31378;SDS011;61664;48.112;11.662;2022-07-21T07:03:32;10.80;;;9.82;;
31378;SDS011;61664;48.112;11.662;2022-07-21T07:06:01;8.27;;;7.68;;
31378;SDS011;61664;48.112;11.662;2022-07-21T07:08:29;9.60;;;8.73;;
31378;SDS011;61664;48.112;11.662;2022-07-21T07:10:56;8.30;;;7.65;;
31378;SDS011;61664;48.112;11.662;2022-07-21T07:13:26;9.55;;;8.75;;
31378;SDS011;61664;48.112;11.662;2022-07-21T07:16:13;8.68;;;7.95;;
31378;SDS011;61664;48.112;11.662;2022-07-21T07:18:40;8.65;;;7.95;;
31378;SDS011;61664;48.112;11.662;2022-07-21T07:21:07;8.65;;;8.05;;
31378;SDS011;61664;48.112;11.662;2022-07-21T07:23:37;9.60;;;8.80;;
31378;SDS011;61664;48.112;11.662;2022-07-21T07:26:05;9.73;;;8.88;;
31378;SDS011;61664;48.112;11.662;2022-07-21T07:28:33;9.45;;;8.65;;
31378;SDS011;61664;48.112;11.662;2022-07-21T07:31:00;8.25;;;7.57;;
31378;SDS011;61664;48.112;11.662;2022-07-21T07:33:27;9.20;;;8.48;;
31378;SDS011;61664;48.112;11.662;2022-07-21T07:35:54;8.77;;;7.97;;
31378;SDS011;61664;48.112;11.662;2022-07-21T07:38:24;8.75;;;8.07;;
31378;SDS011;61664;48.112;11.662;2022-07-21T07:40:51;8.82;;;8.13;;
31378;SDS011;61664;48.112;11.662;2022-07-21T07:43:18;8.05;;;7.35;;
31378;SDS011;61664;48.112;11.662;2022-07-21T07:45:45;7.53;;;6.88;;
31378;SDS011;61664;48.112;11.662;2022-07-21T07:48:12;7.72;;;7.05;;
31378;SDS011;61664;48.112;11.662;2022-07-21T07:50:39;8.65;;;7.93;;
31378;SDS011;61664;48.112;11.662;2022-07-21T07:53:06;6.88;;;6.28;;
31378;SDS011;61664;48.112;11.662;2022-07-21T07:55:33;7.22;;;6.72;;
31378;SDS011;61664;48.112;11.662;2022-07-21T07:58:00;6.75;;;6.35;;
31378;SDS011;61664;48.112;11.662;2022-07-21T08:00:28;7.22;;;6.53;;
31378;SDS011;61664;48.112;11.662;2022-07-21T08:03:14;7.03;;;6.53;;
31378;SDS011;61664;48.112;11.662;2022-07-21T08:05:42;7.80;;;7.10;;
31378;SDS011;61664;48.112;11.662;2022-07-21T08:08:09;7.80;;;7.13;;
31378;SDS011;61664;48.112;11.662;2022-07-21T08:10:36;7.32;;;6.43;;
31378;SDS011;61664;48.112;11.662;2022-07-21T08:13:07;7.63;;;6.93;;
31378;SDS011;61664;48.112;11.662;2022-07-21T08:15:35;6.82;;;6.43;;
31378;SDS011;61664;48.112;11.662;2022-07-21T08:18:03;6.82;;;6.22;;
31378;SDS011;61664;48.112;11.662;2022-07-21T08:20:32;6.93;;;6.18;;
31378;SDS011;61664;48.112;11.662;2022-07-21T08:22:59;6.63;;;6.15;;
31378;SDS011;61664;48.112;11.662;2022-07-21T08:25:27;7.57;;;6.95;;
31378;SDS011;61664;48.112;11.662;2022-07-21T08:27:54;7.18;;;6.68;;
31378;SDS011;61664;48.112;11.662;2022-07-21T08:30:21;6.90;;;6.50;;
31378;SDS011;61664;48.112;11.662;2022-07-21T08:32:55;7.38;;;6.88;;
31378;SDS011;61664;48.112;11.662;2022-07-21T08:35:26;7.10;;;6.50;;
31378;SDS011;61664;48.112;11.662;2022-07-21T08:37:58;7.53;;;7.03;;
31378;SDS011;61664;48.112;11.662;2022-07-21T08:40:36;7.25;;;6.55;;
31378;SDS011;61664;48.112;11.662;2022-07-21T08:43:08;6.40;;;5.93;;
31378;SDS011;61664;48.112;11.662;2022-07-21T08:45:36;7.38;;;6.82;;
31378;SDS011;61664;48.112;11.662;2022-07-21T08:48:04;6.18;;;5.75;;
31378;SDS011;61664;48.112;11.662;2022-07-21T08:50:34;6.72;;;6.22;;
31378;SDS011;61664;48.112;11.662;2022-07-21T08:53:05;7.00;;;6.47;;
31378;SDS011;61664;48.112;11.662;2022-07-21T08:55:32;7.35;;;6.75;;
31378;SDS011;61664;48.112;11.662;2022-07-21T08:58:09;7.72;;;7.05;;
31378;SDS011;61664;48.112;11.662;2022-07-21T09:00:40;7.38;;;6.78;;
31378;SDS011;61664;48.112;11.662;2022-07-21T09:03:17;7.05;;;6.65;;
31378;SDS011;61664;48.112;11.662;2022-07-21T09:06:07;6.93;;;6.40;;
31378;SDS011;61664;48.112;11.662;2022-07-21T09:08:39;7.80;;;7.10;;
31378;SDS011;61664;48.112;11.662;2022-07-21T09:14:05;7.15;;;6.65;;
31378;SDS011;61664;48.112;11.662;2022-07-21T09:16:40;7.68;;;7.10;;
31378;SDS011;61664;48.112;11.662;2022-07-21T09:21:52;7.20;;;6.60;;
31378;SDS011;61664;48.112;11.662;2022-07-21T09:24:24;7.45;;;6.85;;
31378;SDS011;61664;48.112;11.662;2022-07-21T09:27:01;7.35;;;6.72;;
31378;SDS011;61664;48.112;11.662;2022-07-21T09:29:46;7.30;;;6.80;;
31378;SDS011;61664;48.112;11.662;2022-07-21T09:32:19;7.25;;;6.65;;
31378;SDS011;61664;48.112;11.662;2022-07-21T09:35:00;7.85;;;7.25;;
31378;SDS011;61664;48.112;11.662;2022-07-21T09:37:39;7.97;;;7.30;;
31378;SDS011;61664;48.112;11.662;2022-07-21T09:40:08;8.38;;;7.72;;
31378;SDS011;61664;48.112;11.662;2022-07-21T09:42:42;8.05;;;7.35;;
31378;SDS011;61664;48.112;11.662;2022-07-21T09:45:15;7.68;;;7.15;;
31378;SDS011;61664;48.112;11.662;2022-07-21T09:47:44;8.45;;;7.85;;
31378;SDS011;61664;48.112;11.662;2022-07-21T09:50:13;8.70;;;7.95;;
31378;SDS011;61664;48.112;11.662;2022-07-21T09:52:54;8.05;;;7.43;;
31378;SDS011;61664;48.112;11.662;2022-07-21T09:55:24;8.30;;;7.50;;
31378;SDS011;61664;48.112;11.662;2022-07-21T09:57:52;8.05;;;7.40;;
31378;SDS011;61664;48.112;11.662;2022-07-21T10:00:21;9.23;;;8.45;;
31378;SDS011;61664;48.112;11.662;2022-07-21T10:02:48;8.07;;;7.47;;
31378;SDS011;61664;48.112;11.662;2022-07-21T10:05:17;8.25;;;7.60;;
31378;SDS011;61664;48.112;11.662;2022-07-21T10:07:54;7.60;;;7.03;;
31378;SDS011;61664;48.112;11.662;2022-07-21T10:10:24;8.23;;;7.63;;
31378;SDS011;61664;48.112;11.662;2022-07-21T10:13:11;7.75;;;7.13;;
31378;SDS011;61664;48.112;11.662;2022-07-21T10:15:38;9.50;;;8.60;;
31378;SDS011;61664;48.112;11.662;2022-07-21T10:18:07;9.13;;;8.32;;
31378;SDS011;61664;48.112;11.662;2022-07-21T10:20:41;9.32;;;8.60;;
31378;SDS011;61664;48.112;11.662;2022-07-21T10:23:16;10.23;;;9.23;;
31378;SDS011;61664;48.112;11.662;2022-07-21T10:26:00;10.25;;;9.25;;
31378;SDS011;61664;48.112;11.662;2022-07-21T10:28:29;8.52;;;7.85;;
31378;SDS011;61664;48.112;11.662;2022-07-21T10:30:57;9.50;;;8.70;;
31378;SDS011;61664;48.112;11.662;2022-07-21T10:36:11;9.57;;;8.57;;
31378;SDS011;61664;48.112;11.662;2022-07-21T10:41:42;9.45;;;8.57;;
31378;SDS011;61664;48.112;11.662;2022-07-21T10:44:37;9.60;;;8.90;;
31378;SDS011;61664;48.112;11.662;2022-07-21T10:55:16;9.73;;;8.93;;
31378;SDS011;61664;48.112;11.662;2022-07-21T11:00:53;9.18;;;8.32;;
31378;SDS011;61664;48.112;11.662;2022-07-21T11:03:35;8.65;;;7.88;;
31378;SDS011;61664;48.112;11.662;2022-07-21T11:14:00;8.77;;;8.07;;
31378;SDS011;61664;48.112;11.662;2022-07-21T11:22:20;9.45;;;8.65;;
31378;SDS011;61664;48.112;11.662;2022-07-21T11:24:56;9.68;;;8.93;;
31378;SDS011;61664;48.112;11.662;2022-07-21T11:27:35;10.38;;;9.38;;
31378;SDS011;61664;48.112;11.662;2022-07-21T11:30:07;9.95;;;9.15;;
31378;SDS011;61664;48.112;11.662;2022-07-21T11:32:35;9.55;;;8.85;;
31378;SDS011;61664;48.112;11.662;2022-07-21T11:35:04;10.32;;;9.32;;
31378;SDS011;61664;48.112;11.662;2022-07-21T11:37:37;9.35;;;8.55;;
31378;SDS011;61664;48.112;11.662;2022-07-21T11:40:10;10.20;;;9.32;;
31378;SDS011;61664;48.112;11.662;2022-07-21T11:42:45;9.30;;;8.52;;
31378;SDS011;61664;48.112;11.662;2022-07-21T11:45:18;9.15;;;8.45;;
31378;SDS011;61664;48.112;11.662;2022-07-21T11:47:54;9.50;;;8.80;;
31378;SDS011;61664;48.112;11.662;2022-07-21T11:50:20;9.50;;;8.70;;
31378;SDS011;61664;48.112;11.662;2022-07-21T11:52:47;9.43;;;8.73;;
31378;SDS011;61664;48.112;11.662;2022-07-21T11:55:16;9.30;;;8.48;;
31378;SDS011;61664;48.112;11.662;2022-07-21T11:57:45;10.75;;;9.75;;
31378;SDS011;61664;48.112;11.662;2022-07-21T12:00:13;11.10;;;10.00;;
31378;SDS011;61664;48.112;11.662;2022-07-21T12:02:46;11.18;;;10.10;;
31378;SDS011;61664;48.112;11.662;2022-07-21T12:05:15;11.00;;;10.00;;
31378;SDS011;61664;48.112;11.662;2022-07-21T12:07:46;12.70;;;11.45;;
31378;SDS011;61664;48.112;11.662;2022-07-21T12:10:22;11.73;;;10.73;;
31378;SDS011;61664;48.112;11.662;2022-07-21T12:13:04;10.35;;;9.50;;
31378;SDS011;61664;48.112;11.662;2022-07-21T12:15:34;10.80;;;9.80;;
31378;SDS011;61664;48.112;11.662;2022-07-21T12:18:04;11.00;;;10.15;;
31378;SDS011;61664;48.112;11.662;2022-07-21T12:20:40;9.73;;;8.93;;
31378;SDS011;61664;48.112;11.662;2022-07-21T12:23:21;11.77;;;10.68;;
31378;SDS011;61664;48.112;11.662;2022-07-21T12:25:55;10.35;;;9.45;;
31378;SDS011;61664;48.112;11.662;2022-07-21T12:28:42;11.98;;;10.80;;
31378;SDS011;61664;48.112;11.662;2022-07-21T12:31:16;9.65;;;8.85;;
31378;SDS011;61664;48.112;11.662;2022-07-21T12:33:53;11.02;;;10.13;;
31378;SDS011;61664;48.112;11.662;2022-07-21T12:36:43;10.75;;;9.85;;
31378;SDS011;61664;48.112;11.662;2022-07-21T12:39:14;11.48;;;10.48;;
31378;SDS011;61664;48.112;11.662;2022-07-21T12:42:06;11.60;;;10.40;;
31378;SDS011;61664;48.112;11.662;2022-07-21T12:44:35;10.25;;;9.25;;
31378;SDS011;61664;48.112;11.662;2022-07-21T12:47:16;12.30;;;11.07;;
31378;SDS011;61664;48.112;11.662;2022-07-21T12:52:48;11.50;;;10.52;;
31378;SDS011;61664;48.112;11.662;2022-07-21T12:55:15;10.90;;;10.00;;
31378;SDS011;61664;48.112;11.662;2022-07-21T12:57:42;10.85;;;9.90;;
31378;SDS011;61664;48.112;11.662;2022-07-21T13:00:10;10.23;;;9.43;;
31378;SDS011;61664;48.112;11.662;2022-07-21T13:02:51;10.80;;;9.90;;
31378;SDS011;61664;48.112;11.662;2022-07-21T13:05:21;11.35;;;10.45;;
31378;SDS011;61664;48.112;11.662;2022-07-21T13:07:50;10.95;;;9.85;;
31378;SDS011;61664;48.112;11.662;2022-07-21T13:10:17;10.65;;;9.75;;
31378;SDS011;61664;48.112;11.662;2022-07-21T13:12:45;10.95;;;9.95;;
31378;SDS011;61664;48.112;11.662;2022-07-21T13:15:12;10.82;;;9.93;;
31378;SDS011;61664;48.112;11.662;2022-07-21T13:17:40;10.40;;;9.60;;
31378;SDS011;61664;48.112;11.662;2022-07-21T13:20:08;10.05;;;9.23;;
31378;SDS011;61664;48.112;11.662;2022-07-21T13:22:35;10.18;;;9.38;;
31378;SDS011;61664;48.112;11.662;2022-07-21T13:25:03;11.20;;;10.10;;
31378;SDS011;61664;48.112;11.662;2022-07-21T13:27:33;11.13;;;10.00;;
31378;SDS011;61664;48.112;11.662;2022-07-21T13:30:01;10.68;;;9.75;;
31378;SDS011;61664;48.112;11.662;2022-07-21T13:32:33;11.35;;;10.32;;
31378;SDS011;61664;48.112;11.662;2022-07-21T13:35:01;9.90;;;9.02;;
31378;SDS011;61664;48.112;11.662;2022-07-21T13:37:53;10.40;;;9.50;;
31378;SDS011;61664;48.112;11.662;2022-07-21T13:40:21;9.93;;;9.13;;
31378;SDS011;61664;48.112;11.662;2022-07-21T13:43:10;10.93;;;9.80;;
31378;SDS011;61664;48.112;11.662;2022-07-21T13:45:58;9.80;;;9.02;;
31378;SDS011;61664;48.112;11.662;2022-07-21T13:48:25;10.43;;;9.52;;
31378;SDS011;61664;48.112;11.662;2022-07-21T13:50:52;10.98;;;10.00;;
31378;SDS011;61664;48.112;11.662;2022-07-21T13:53:19;10.82;;;9.93;;
31378;SDS011;61664;48.112;11.662;2022-07-21T13:55:46;11.45;;;10.32;;
31378;SDS011;61664;48.112;11.662;2022-07-21T13:58:13;9.70;;;8.95;;
31378;SDS011;61664;48.112;11.662;2022-07-21T14:00:40;9.57;;;8.80;;
31378;SDS011;61664;48.112;11.662;2022-07-21T14:03:09;9.73;;;8.93;;
31378;SDS011;61664;48.112;11.662;2022-07-21T14:05:36;10.32;;;9.43;;
31378;SDS011;61664;48.112;11.662;2022-07-21T14:08:04;10.60;;;9.57;;
31378;SDS011;61664;48.112;11.662;2022-07-21T14:10:31;10.20;;;9.38;;
31378;SDS011;61664;48.112;11.662;2022-07-21T14:12:59;9.43;;;8.63;;
31378;SDS011;61664;48.112;11.662;2022-07-21T14:15:26;10.95;;;9.93;;
31378;SDS011;61664;48.112;11.662;2022-07-21T14:17:54;11.43;;;10.43;;
31378;SDS011;61664;48.112;11.662;2022-07-21T14:20:23;11.93;;;10.82;;
31378;SDS011;61664;48.112;11.662;2022-07-21T14:22:53;10.98;;;9.88;;
31378;SDS011;61664;48.112;11.662;2022-07-21T14:25:21;10.00;;;9.15;;
31378;SDS011;61664;48.112;11.662;2022-07-21T14:27:50;10.18;;;9.40;;
31378;SDS011;61664;48.112;11.662;2022-07-21T14:30:21;10.30;;;9.38;;
31378;SDS011;61664;48.112;11.662;2022-07-21T14:32:53;10.63;;;9.75;;
31378;SDS011;61664;48.112;11.662;2022-07-21T14:35:21;9.98;;;9.18;;
31378;SDS011;61664;48.112;11.662;2022-07-21T14:37:49;9.35;;;8.68;;
31378;SDS011;61664;48.112;11.662;2022-07-21T14:40:17;9.38;;;8.73;;
31378;SDS011;61664;48.112;11.662;2022-07-21T14:42:45;11.35;;;10.35;;
31378;SDS011;61664;48.112;11.662;2022-07-21T14:45:14;10.32;;;9.38;;
31378;SDS011;61664;48.112;11.662;2022-07-21T14:47:51;9.35;;;8.63;;
31378;SDS011;61664;48.112;11.662;2022-07-21T14:50:21;9.02;;;8.32;;
31378;SDS011;61664;48.112;11.662;2022-07-21T14:52:54;8.63;;;8.02;;
31378;SDS011;61664;48.112;11.662;2022-07-21T14:55:23;7.90;;;7.30;;
31378;SDS011;61664;48.112;11.662;2022-07-21T14:57:52;8.17;;;7.47;;
31378;SDS011;61664;48.112;11.662;2022-07-21T15:00:19;7.90;;;7.30;;
31378;SDS011;61664;48.112;11.662;2022-07-21T15:05:17;6.97;;;6.57;;
31378;SDS011;61664;48.112;11.662;2022-07-21T15:07:44;7.53;;;6.93;;
31378;SDS011;61664;48.112;11.662;2022-07-21T15:10:11;7.18;;;6.63;;
31378;SDS011;61664;48.112;11.662;2022-07-21T15:12:38;7.13;;;6.63;;
31378;SDS011;61664;48.112;11.662;2022-07-21T15:15:05;7.00;;;6.60;;
31378;SDS011;61664;48.112;11.662;2022-07-21T15:17:33;7.07;;;6.65;;
31378;SDS011;61664;48.112;11.662;2022-07-21T15:20:00;7.20;;;6.72;;
31378;SDS011;61664;48.112;11.662;2022-07-21T15:22:27;7.13;;;6.68;;
31378;SDS011;61664;48.112;11.662;2022-07-21T15:24:58;7.00;;;6.40;;
31378;SDS011;61664;48.112;11.662;2022-07-21T15:27:26;6.35;;;5.95;;
31378;SDS011;61664;48.112;11.662;2022-07-21T15:29:54;5.82;;;5.43;;